Time;durP1;ratioP1;P1;durP2;ratioP2;P2;SDS_P1;SDS_P2;PMS_P1;PMS_P2;Temp;Humidity;BMP_temperature;BMP_pressure;BME280_temperature;BME280_humidity;BME280_pressure;Samples;Min_cycle;Max_cycle;Signal;HPM_P1;HPM_P2
2023/06/23 00:00:53;;;;;;;9.97;9.07;;;16.20;99.90;;;;;;5119672;28;20498;-58
2023/06/23 00:03:20;;;;;;;9.37;8.57;;;16.20;99.90;;;;;;5118062;28;20479;-58
2023/06/23 00:05:49;;;;;;;9.53;8.73;;;16.20;99.90;;;;;;5119670;28;20483;-60
2023/06/23 00:08:16;;;;;;;10.53;9.60;;;16.20;99.90;;;;;;5119180;28;20470;-60
2023/06/23 00:10:44;;;;;;;10.37;9.47;;;16.20;99.90;;;;;;5119615;28;20506;-57
2023/06/23 00:13:11;;;;;;;12.17;11.17;;;16.20;99.90;;;;;;5119331;28;20499;-54
2023/06/23 00:15:39;;;;;;;11.93;10.93;;;16.10;99.90;;;;;;5119321;28;20503;-57
2023/06/23 00:18:06;;;;;;;11.40;10.40;;;16.10;99.90;;;;;;5119237;28;20451;-59
2023/06/23 00:20:33;;;;;;;12.23;10.87;;;16.10;99.90;;;;;;5119081;28;20500;-58
2023/06/23 00:23:02;;;;;;;12.90;11.90;;;16.00;99.90;;;;;;5118709;28;20573;-58
2023/06/23 00:25:29;;;;;;;12.00;11.00;;;16.00;99.90;;;;;;5119039;28;20865;-54
2023/06/23 00:27:56;;;;;;;12.90;11.80;;;16.00;99.90;;;;;;5118831;28;20515;-58
2023/06/23 00:30:23;;;;;;;13.10;12.00;;;16.00;99.90;;;;;;5118805;28;20933;-58
2023/06/23 00:32:51;;;;;;;10.80;9.90;;;16.10;99.90;;;;;;5119180;28;20760;-59
2023/06/23 00:35:19;;;;;;;10.83;10.00;;;16.00;99.90;;;;;;5119262;28;20788;-59
2023/06/23 00:37:46;;;;;;;10.83;9.83;;;16.00;99.90;;;;;;5118965;28;20467;-59
2023/06/23 00:40:16;;;;;;;10.60;9.70;;;16.00;99.90;;;;;;5118647;28;20462;-59
2023/06/23 00:42:44;;;;;;;9.40;8.60;;;15.90;99.90;;;;;;5118964;28;20547;-58
2023/06/23 00:45:13;;;;;;;11.47;10.47;;;15.90;99.90;;;;;;5118702;28;20929;-58
2023/06/23 00:47:43;;;;;;;11.17;10.27;;;15.80;99.90;;;;;;5118778;28;20456;-59
2023/06/23 00:50:13;;;;;;;11.43;10.50;;;16.00;99.90;;;;;;5118211;28;20460;-58
2023/06/23 00:52:40;;;;;;;12.87;11.83;;;15.90;99.90;;;;;;5118522;28;20939;-58
2023/06/23 00:55:08;;;;;;;15.10;13.70;;;15.80;99.90;;;;;;5118815;28;20868;-57
2023/06/23 00:57:37;;;;;;;13.97;12.87;;;15.80;99.90;;;;;;5118806;28;20669;-58
2023/06/23 01:00:11;;;;;;;14.07;12.90;;;15.80;99.90;;;;;;5118452;28;20459;-55
2023/06/23 01:02:39;;;;;;;15.50;14.10;;;15.70;99.90;;;;;;5118071;27;20494;-57
2023/06/23 01:05:07;;;;;;;17.43;15.83;;;15.80;99.90;;;;;;5118230;28;20527;-52
2023/06/23 01:07:42;;;;;;;17.13;15.57;;;15.80;99.90;;;;;;5118440;28;20863;-58
2023/06/23 01:10:16;;;;;;;18.40;16.70;;;15.80;99.90;;;;;;5118341;28;20474;-58
2023/06/23 01:12:56;;;;;;;16.63;15.20;;;15.80;99.90;;;;;;5118136;28;20467;-55
2023/06/23 01:15:31;;;;;;;17.60;16.10;;;15.80;99.90;;;;;;5118344;28;20623;-58
2023/06/23 01:18:06;;;;;;;17.20;15.70;;;15.80;99.90;;;;;;5118025;28;20459;-59
2023/06/23 01:20:37;;;;;;;16.80;15.20;;;15.80;99.90;;;;;;5117956;28;20512;-58
2023/06/23 01:23:27;;;;;;;16.07;14.67;;;15.90;99.90;;;;;;5118553;28;20455;-56
2023/06/23 01:25:56;;;;;;;16.43;15.07;;;15.80;99.90;;;;;;5117940;28;20491;-57
2023/06/23 01:28:41;;;;;;;16.17;14.83;;;15.80;99.90;;;;;;5117921;28;20876;-58
2023/06/23 01:31:14;;;;;;;17.50;16.07;;;15.90;99.90;;;;;;5117875;28;20459;-58
2023/06/23 01:33:48;;;;;;;17.90;16.37;;;15.90;99.90;;;;;;5118386;28;20770;-58
2023/06/23 01:36:21;;;;;;;17.57;16.17;;;15.80;99.90;;;;;;5118209;28;20458;-58
2023/06/23 01:38:53;;;;;;;18.90;17.20;;;15.90;99.90;;;;;;5117761;28;20559;-60
2023/06/23 01:41:24;;;;;;;18.90;17.30;;;16.00;99.90;;;;;;5117840;28;20554;-59
2023/06/23 01:43:58;;;;;;;19.10;17.50;;;15.90;99.90;;;;;;5117259;28;20455;-59
2023/06/23 01:46:34;;;;;;;19.93;18.03;;;15.80;99.90;;;;;;5117922;28;20508;-59
2023/06/23 01:49:10;;;;;;;17.43;16.00;;;15.90;99.90;;;;;;5117660;28;20527;-59
2023/06/23 01:51:42;;;;;;;17.90;16.30;;;15.90;99.90;;;;;;5117861;28;20461;-60
2023/06/23 01:54:10;;;;;;;17.23;15.73;;;15.90;99.90;;;;;;5117166;28;20491;-58
2023/06/23 01:56:39;;;;;;;17.93;16.43;;;15.80;99.90;;;;;;5117375;28;20491;-58
2023/06/23 01:59:10;;;;;;;17.70;16.20;;;15.80;99.90;;;;;;5117684;28;20817;-58
2023/06/23 02:01:38;;;;;;;16.10;14.90;;;15.90;99.90;;;;;;5117679;28;20550;-59
2023/06/23 02:04:07;;;;;;;17.43;15.93;;;15.90;99.90;;;;;;5116967;28;20476;-58
2023/06/23 02:06:37;;;;;;;14.73;13.33;;;15.90;99.90;;;;;;5117602;28;20465;-57
2023/06/23 02:09:06;;;;;;;16.30;14.63;;;15.80;99.90;;;;;;5117553;28;20883;-58
2023/06/23 02:11:36;;;;;;;14.57;13.27;;;15.80;99.90;;;;;;5117677;28;20470;-55
2023/06/23 02:14:03;;;;;;;15.83;14.43;;;15.90;99.90;;;;;;5117620;28;20494;-53
2023/06/23 02:16:33;;;;;;;15.37;13.87;;;15.90;99.90;;;;;;5117264;28;20456;-58
2023/06/23 02:19:02;;;;;;;16.10;14.60;;;15.80;99.90;;;;;;5117675;28;20467;-54
2023/06/23 02:21:32;;;;;;;16.77;15.20;;;15.80;99.90;;;;;;5117466;28;20459;-58
2023/06/23 02:24:05;;;;;;;14.77;13.47;;;15.80;99.90;;;;;;5116818;28;20456;-56
2023/06/23 02:26:34;;;;;;;15.47;14.10;;;15.80;99.90;;;;;;5117671;28;20578;-58
2023/06/23 02:29:02;;;;;;;14.73;13.33;;;15.80;99.90;;;;;;5121375;27;20463;-58
2023/06/23 02:31:31;;;;;;;16.97;15.27;;;15.80;99.90;;;;;;5121353;28;20550;-59
2023/06/23 02:33:58;;;;;;;15.97;14.47;;;15.80;99.90;;;;;;5120858;28;20466;-59
2023/06/23 02:36:30;;;;;;;16.30;14.93;;;15.80;99.90;;;;;;5120903;28;20466;-59
2023/06/23 02:39:04;;;;;;;16.17;14.67;;;15.80;99.90;;;;;;5120945;28;20494;-58
2023/06/23 02:41:35;;;;;;;14.87;13.47;;;15.70;99.90;;;;;;5121043;28;20542;-59
2023/06/23 02:44:07;;;;;;;14.80;13.40;;;15.70;99.90;;;;;;5120966;28;20516;-58
2023/06/23 02:46:39;;;;;;;16.63;14.90;;;15.80;99.90;;;;;;5121365;28;20760;-58
2023/06/23 02:49:12;;;;;;;16.47;14.87;;;15.70;99.90;;;;;;5121025;28;20462;-59
2023/06/23 02:51:41;;;;;;;15.50;14.07;;;15.80;99.90;;;;;;5121376;28;20502;-57
2023/06/23 02:54:12;;;;;;;14.63;13.33;;;15.80;99.90;;;;;;5120804;28;20463;-57
2023/06/23 02:56:43;;;;;;;15.87;14.17;;;15.80;99.90;;;;;;5120814;28;20750;-60
2023/06/23 02:59:17;;;;;;;14.83;13.27;;;15.80;99.90;;;;;;5120747;28;20464;-59
2023/06/23 03:01:48;;;;;;;14.43;13.07;;;15.70;99.90;;;;;;5121219;28;20459;-61
2023/06/23 03:04:16;;;;;;;14.40;12.90;;;15.70;99.90;;;;;;5120600;28;20546;-60
2023/06/23 03:06:44;;;;;;;13.03;11.57;;;15.70;99.90;;;;;;5120647;28;20521;-61
2023/06/23 03:09:11;;;;;;;15.53;13.80;;;15.80;99.90;;;;;;5120722;28;20467;-61
2023/06/23 03:11:39;;;;;;;14.23;12.90;;;15.70;99.90;;;;;;5120774;28;20474;-61
2023/06/23 03:14:07;;;;;;;13.97;12.47;;;15.70;99.90;;;;;;5120572;28;20467;-61
2023/06/23 03:16:43;;;;;;;15.07;13.73;;;15.70;99.90;;;;;;5120365;28;20460;-61
2023/06/23 03:19:20;;;;;;;15.33;13.73;;;15.60;99.90;;;;;;5120460;28;20470;-61
2023/06/23 03:21:53;;;;;;;15.53;14.00;;;15.60;99.90;;;;;;5120885;28;20456;-59
2023/06/23 03:24:23;;;;;;;16.50;14.90;;;15.60;99.90;;;;;;5120088;28;20463;-60
2023/06/23 03:26:57;;;;;;;15.63;14.03;;;15.60;99.90;;;;;;5120033;28;20883;-60
2023/06/23 03:29:27;;;;;;;15.77;14.27;;;15.60;99.90;;;;;;5120431;28;20467;-59
2023/06/23 03:31:59;;;;;;;18.33;16.13;;;15.60;99.90;;;;;;5120040;28;20917;-61
2023/06/23 03:34:35;;;;;;;17.87;15.97;;;15.60;99.90;;;;;;5119878;28;20563;-58
2023/06/23 03:37:06;;;;;;;18.07;16.57;;;15.60;99.90;;;;;;5120310;28;20463;-60
2023/06/23 03:39:38;;;;;;;18.27;16.40;;;15.70;99.90;;;;;;5120291;27;20434;-59
2023/06/23 03:42:06;;;;;;;19.00;17.23;;;15.70;99.90;;;;;;5120153;28;20511;-60
2023/06/23 03:44:40;;;;;;;19.93;18.10;;;15.70;99.90;;;;;;5119702;28;20464;-59
2023/06/23 03:47:14;;;;;;;18.57;16.83;;;15.70;99.90;;;;;;5120299;28;20457;-59
2023/06/23 03:49:46;;;;;;;21.60;19.30;;;15.70;99.90;;;;;;5119993;28;20460;-59
2023/06/23 03:52:15;;;;;;;20.40;18.50;;;15.70;99.90;;;;;;5119880;28;20899;-59
2023/06/23 03:54:47;;;;;;;20.03;18.13;;;15.70;99.90;;;;;;5120023;27;20897;-59
2023/06/23 03:57:19;;;;;;;20.63;18.73;;;15.70;99.90;;;;;;5119752;28;20752;-60
2023/06/23 03:59:48;;;;;;;20.23;18.30;;;15.70;99.90;;;;;;5119851;27;20456;-59
2023/06/23 04:02:20;;;;;;;24.20;22.00;;;15.70;99.90;;;;;;5118947;28;20557;-55
2023/06/23 04:04:50;;;;;;;23.10;20.70;;;15.80;99.90;;;;;;5115095;28;20476;-59
2023/06/23 04:07:19;;;;;;;26.13;23.80;;;15.70;99.90;;;;;;5119575;28;20464;-61
2023/06/23 04:09:49;;;;;;;26.90;24.50;;;15.80;99.90;;;;;;5119561;28;20459;-61
2023/06/23 04:12:18;;;;;;;28.10;25.67;;;15.80;99.90;;;;;;5119246;28;20459;-61
2023/06/23 04:14:49;;;;;;;32.80;29.87;;;15.90;99.90;;;;;;5117789;28;20520;-60
2023/06/23 04:17:20;;;;;;;36.87;33.47;;;15.90;99.90;;;;;;5118654;28;20463;-60
2023/06/23 04:19:52;;;;;;;37.83;34.43;;;15.90;99.90;;;;;;5119460;28;20546;-60
2023/06/23 04:22:21;;;;;;;41.53;37.73;;;15.90;99.90;;;;;;5118556;28;20814;-60
2023/06/23 04:24:49;;;;;;;40.60;36.83;;;16.00;99.90;;;;;;5119005;27;20459;-59
2023/06/23 04:27:20;;;;;;;43.73;39.93;;;15.90;99.90;;;;;;5119271;28;20542;-60
2023/06/23 04:29:49;;;;;;;42.93;39.33;;;15.90;99.90;;;;;;5118385;28;20561;-60
2023/06/23 04:32:17;;;;;;;46.70;42.70;;;15.90;99.90;;;;;;5108055;28;20821;-60
2023/06/23 04:34:45;;;;;;;47.40;43.10;;;16.00;99.90;;;;;;5117147;28;20458;-58
2023/06/23 04:37:22;;;;;;;49.27;44.90;;;16.00;99.90;;;;;;5119035;28;20547;-61
2023/06/23 04:39:54;;;;;;;48.93;44.70;;;16.10;99.90;;;;;;5118643;28;20487;-59
2023/06/23 04:42:26;;;;;;;48.13;43.70;;;16.00;99.90;;;;;;5117863;28;20465;-61
2023/06/23 04:44:57;;;;;;;46.20;41.77;;;16.00;99.90;;;;;;5109291;28;20471;-61
2023/06/23 04:47:30;;;;;;;48.40;44.03;;;15.90;99.90;;;;;;5098875;28;20571;-61
2023/06/23 04:50:01;;;;;;;48.17;43.60;;;16.00;99.90;;;;;;5097361;28;20456;-61
2023/06/23 04:52:33;;;;;;;47.57;43.37;;;16.00;99.90;;;;;;5098455;28;20518;-61
2023/06/23 04:55:03;;;;;;;48.00;43.60;;;16.00;99.90;;;;;;5114798;28;20900;-61
2023/06/23 04:57:34;;;;;;;46.93;42.27;;;16.00;99.90;;;;;;5118748;28;20463;-59
2023/06/23 05:00:05;;;;;;;46.30;42.27;;;15.90;99.90;;;;;;5118063;28;20546;-60
2023/06/23 05:02:33;;;;;;;45.93;41.63;;;15.90;99.90;;;;;;5118237;28;20509;-61
2023/06/23 05:05:01;;;;;;;47.80;43.73;;;16.00;99.90;;;;;;5118428;28;20551;-62
2023/06/23 05:07:32;;;;;;;46.97;42.67;;;16.00;99.90;;;;;;5118450;28;20458;-62
2023/06/23 05:10:01;;;;;;;48.50;44.00;;;16.00;99.90;;;;;;5118212;28;20459;-61
2023/06/23 05:12:29;;;;;;;47.00;42.53;;;16.00;99.90;;;;;;5118572;28;20814;-59
2023/06/23 05:14:58;;;;;;;49.20;44.80;;;16.00;99.90;;;;;;5118221;28;20594;-62
2023/06/23 05:17:28;;;;;;;43.87;39.93;;;16.00;99.90;;;;;;5118323;28;20459;-63
2023/06/23 05:19:57;;;;;;;41.10;37.37;;;16.10;99.90;;;;;;5118099;28;20771;-62
2023/06/23 05:22:27;;;;;;;41.83;38.23;;;16.00;99.90;;;;;;5117931;28;20464;-62
2023/06/23 05:25:03;;;;;;;43.07;39.27;;;16.10;99.90;;;;;;5118056;28;20562;-60
2023/06/23 05:27:33;;;;;;;38.47;34.83;;;16.20;99.90;;;;;;5118632;28;20498;-65
2023/06/23 05:30:02;;;;;;;37.67;34.37;;;16.10;99.90;;;;;;5121004;28;20466;-63
2023/06/23 05:32:33;;;;;;;37.63;34.43;;;16.10;99.90;;;;;;5118633;28;20554;-62
2023/06/23 05:35:04;;;;;;;40.83;37.17;;;16.10;99.90;;;;;;5120508;28;20460;-65
2023/06/23 05:37:34;;;;;;;39.83;36.43;;;16.20;99.90;;;;;;5120016;28;20585;-66
2023/06/23 05:40:04;;;;;;;37.67;34.27;;;16.20;99.90;;;;;;5119445;28;20485;-64
2023/06/23 05:42:32;;;;;;;38.73;34.93;;;16.30;99.90;;;;;;5118920;28;20430;-65
2023/06/23 05:45:00;;;;;;;37.13;33.57;;;16.20;99.90;;;;;;5121907;28;20502;-65
2023/06/23 05:47:45;;;;;;;37.03;33.67;;;16.30;99.90;;;;;;5121412;28;20523;-66
2023/06/23 05:50:20;;;;;;;33.37;30.10;;;16.40;99.90;;;;;;5120245;28;20482;-66
2023/06/23 05:52:58;;;;;;;29.03;26.40;;;16.40;99.90;;;;;;5121608;28;20461;-65
2023/06/23 05:55:29;;;;;;;29.87;27.07;;;16.40;99.90;;;;;;5121824;28;20495;-66
2023/06/23 05:58:00;;;;;;;30.30;27.50;;;16.40;99.90;;;;;;5121317;28;20498;-66
2023/06/23 06:00:31;;;;;;;29.73;27.03;;;16.50;99.90;;;;;;5120188;28;20566;-66
2023/06/23 06:03:02;;;;;;;29.63;27.23;;;16.60;99.90;;;;;;5121845;28;20518;-66
2023/06/23 06:05:31;;;;;;;26.93;24.67;;;16.70;99.90;;;;;;5122532;28;20478;-65
2023/06/23 06:08:01;;;;;;;29.60;27.13;;;16.70;99.90;;;;;;5123602;28;20471;-60
2023/06/23 06:10:31;;;;;;;25.07;22.87;;;16.70;99.90;;;;;;5123477;28;20516;-65
2023/06/23 06:13:01;;;;;;;27.97;25.47;;;16.70;99.90;;;;;;5124622;28;20536;-66
2023/06/23 06:15:29;;;;;;;26.00;23.73;;;16.80;99.90;;;;;;5122857;28;20451;-66
2023/06/23 06:17:58;;;;;;;26.10;23.77;;;16.80;99.90;;;;;;5122397;28;20743;-66
2023/06/23 06:20:27;;;;;;;25.20;22.90;;;16.80;99.90;;;;;;5122887;28;20497;-66
2023/06/23 06:22:56;;;;;;;24.20;21.97;;;16.90;99.90;;;;;;5123108;28;20554;-66
2023/06/23 06:25:27;;;;;;;23.30;21.17;;;16.90;99.90;;;;;;5121803;28;20494;-66
2023/06/23 06:27:58;;;;;;;23.40;21.23;;;17.00;99.90;;;;;;5122180;28;20483;-66
2023/06/23 06:30:27;;;;;;;25.47;22.97;;;17.20;99.90;;;;;;5123106;28;20459;-67
2023/06/23 06:32:55;;;;;;;23.60;21.23;;;17.40;99.90;;;;;;5117862;28;20455;-66
2023/06/23 06:35:23;;;;;;;20.80;19.00;;;17.40;99.90;;;;;;5121665;28;20763;-67
2023/06/23 06:37:52;;;;;;;20.50;18.70;;;17.40;99.90;;;;;;5120767;28;20455;-66
2023/06/23 06:40:25;;;;;;;19.30;17.70;;;17.40;99.90;;;;;;5111267;28;20567;-65
2023/06/23 06:42:52;;;;;;;21.67;19.63;;;17.20;99.90;;;;;;5103742;28;20446;-65
2023/06/23 06:45:21;;;;;;;20.37;18.67;;;17.10;99.90;;;;;;5101970;28;20456;-68
2023/06/23 06:47:50;;;;;;;20.03;18.10;;;17.10;99.90;;;;;;5105769;28;20471;-68
2023/06/23 06:50:19;;;;;;;19.63;17.50;;;17.20;99.90;;;;;;5119557;28;20821;-67
2023/06/23 06:52:47;;;;;;;20.77;18.70;;;17.10;99.90;;;;;;5121232;28;20830;-67
2023/06/23 06:55:18;;;;;;;18.90;17.20;;;17.30;99.90;;;;;;5121128;28;20888;-67
2023/06/23 06:57:46;;;;;;;20.67;18.83;;;17.30;99.90;;;;;;5121181;28;20829;-68
2023/06/23 07:00:15;;;;;;;18.77;16.83;;;17.50;99.90;;;;;;5121141;28;20468;-68
2023/06/23 07:02:44;;;;;;;18.90;17.00;;;17.60;99.90;;;;;;5120997;28;20492;-67
2023/06/23 07:05:11;;;;;;;18.07;16.27;;;18.00;99.90;;;;;;5121723;28;20459;-67
2023/06/23 07:07:39;;;;;;;16.63;14.90;;;18.40;99.90;;;;;;5121574;28;20931;-68
2023/06/23 07:10:08;;;;;;;14.20;12.80;;;18.70;99.90;;;;;;5120884;28;20512;-65
2023/06/23 07:12:35;;;;;;;15.23;13.40;;;18.50;99.90;;;;;;5121090;28;20527;-68
2023/06/23 07:15:02;;;;;;;15.53;13.60;;;18.40;99.90;;;;;;5121451;28;20497;-68
2023/06/23 07:17:30;;;;;;;16.73;13.60;;;18.30;99.90;;;;;;5121337;28;20763;-67
2023/06/23 07:19:59;;;;;;;18.70;14.07;;;18.20;99.90;;;;;;5120632;28;20466;-67
2023/06/23 07:22:26;;;;;;;15.57;13.50;;;18.30;99.90;;;;;;5119672;28;20463;-67
2023/06/23 07:24:55;;;;;;;13.73;12.33;;;18.30;99.90;;;;;;5120534;28;20466;-68
2023/06/23 07:27:22;;;;;;;14.20;12.70;;;18.30;99.90;;;;;;5120789;28;20498;-67
2023/06/23 07:29:50;;;;;;;13.90;12.57;;;18.60;99.90;;;;;;5120280;28;20563;-68
2023/06/23 07:32:17;;;;;;;14.00;12.27;;;18.80;99.90;;;;;;5121496;28;20474;-68
2023/06/23 07:34:44;;;;;;;13.40;12.20;;;18.60;99.90;;;;;;5121333;28;20472;-67
2023/06/23 07:37:13;;;;;;;12.77;11.57;;;18.70;99.90;;;;;;5121818;28;20469;-67
2023/06/23 07:39:41;;;;;;;11.93;10.80;;;19.10;99.90;;;;;;5121557;28;20555;-67
2023/06/23 07:42:09;;;;;;;13.53;12.27;;;19.30;1.00;;;;;;5121213;28;20548;-67
2023/06/23 07:44:37;;;;;;;13.47;12.17;;;19.80;1.00;;;;;;5119724;28;20467;-68
2023/06/23 07:47:05;;;;;;;13.17;10.40;;;20.20;1.00;;;;;;5120163;28;20784;-68
2023/06/23 07:49:33;;;;;;;10.40;9.37;;;20.60;1.00;;;;;;5120183;28;20564;-68
2023/06/23 07:52:00;;;;;;;9.37;8.43;;;20.70;99.90;;;;;;5119932;27;20464;-71
2023/06/23 07:54:29;;;;;;;10.57;9.47;;;20.70;50.80;;;;;;5119761;28;20892;-68
2023/06/23 07:56:57;;;;;;;10.03;9.13;;;20.50;24.40;;;;;;5119536;28;20486;-69
2023/06/23 07:59:25;;;;;;;9.53;8.53;;;20.70;1.00;;;;;;5120251;28;20471;-70
2023/06/23 08:01:52;;;;;;;10.80;9.77;;;20.60;1.00;;;;;;5121256;28;20516;-67
2023/06/23 08:04:20;;;;;;;12.97;11.77;;;20.30;1.00;;;;;;5120160;28;20501;-66
2023/06/23 08:06:47;;;;;;;12.27;10.97;;;20.60;94.20;;;;;;5120302;28;20491;-65
2023/06/23 08:09:15;;;;;;;12.33;11.10;;;21.00;81.50;;;;;;5120522;28;20913;-64
2023/06/23 08:11:44;;;;;;;11.57;10.47;;;21.40;1.00;;;;;;5122374;28;22420;-65
2023/06/23 08:14:12;;;;;;;14.20;11.17;;;21.00;1.00;;;;;;5124689;28;20463;-64
2023/06/23 08:16:40;;;;;;;10.57;9.43;;;20.70;1.00;;;;;;5123393;28;20459;-66
2023/06/23 08:19:07;;;;;;;10.87;9.50;;;21.10;1.00;;;;;;5124388;28;20558;-66
2023/06/23 08:21:35;;;;;;;17.37;10.50;;;20.90;1.00;;;;;;5122882;28;20493;-64
2023/06/23 08:24:03;;;;;;;11.63;9.73;;;20.70;1.00;;;;;;5123518;28;20464;-63
2023/06/23 08:26:30;;;;;;;11.83;10.63;;;21.00;1.00;;;;;;5125705;28;20546;-63
2023/06/23 08:28:59;;;;;;;12.03;9.00;;;21.10;1.00;;;;;;5126405;28;20558;-62
2023/06/23 08:31:26;;;;;;;11.87;10.77;;;21.30;1.00;;;;;;5124191;28;20464;-62
2023/06/23 08:33:54;;;;;;;9.20;8.23;;;21.50;1.00;;;;;;5122895;28;20460;-62
2023/06/23 08:36:21;;;;;;;9.30;7.77;;;21.70;1.00;;;;;;5119212;28;20946;-62
2023/06/23 08:38:49;;;;;;;10.40;7.43;;;21.80;1.00;;;;;;5122506;28;20498;-62
2023/06/23 08:41:20;;;;;;;9.40;8.50;;;21.90;1.00;;;;;;5122270;28;20485;-61
2023/06/23 08:43:49;;;;;;;8.80;7.57;;;22.20;1.00;;;;;;5120131;28;20479;-61
2023/06/23 08:46:24;;;;;;;6.77;6.07;;;22.90;1.00;;;;;;5119497;28;20460;-62
2023/06/23 08:48:53;;;;;;;5.73;5.13;;;22.50;99.90;;;;;;5119178;28;20549;-61
2023/06/23 08:51:21;;;;;;;6.00;5.40;;;22.50;99.90;;;;;;5118396;28;20483;-61
2023/06/23 08:53:49;;;;;;;5.60;5.00;;;23.20;99.90;;;;;;5118382;28;20541;-60
2023/06/23 08:56:16;;;;;;;5.20;4.80;;;23.20;99.90;;;;;;5119698;28;20459;-62
2023/06/23 08:58:46;;;;;;;6.80;5.50;;;23.40;99.90;;;;;;5119851;28;20480;-61
2023/06/23 09:01:13;;;;;;;5.10;4.60;;;22.80;99.90;;;;;;5123159;28;20466;-62
2023/06/23 09:03:42;;;;;;;6.23;5.63;;;22.60;99.90;;;;;;5123749;28;20491;-62
2023/06/23 09:06:09;;;;;;;5.80;5.30;;;22.90;99.90;;;;;;5123269;28;20478;-61
2023/06/23 09:08:37;;;;;;;6.03;5.43;;;23.30;99.90;;;;;;5118835;28;20942;-61
2023/06/23 09:11:04;;;;;;;7.43;5.73;;;24.30;99.90;;;;;;5121767;28;20502;-61
2023/06/23 09:13:35;;;;;;;8.17;5.37;;;24.10;99.90;;;;;;5122323;28;20765;-62
2023/06/23 09:16:04;;;;;;;6.57;5.97;;;23.20;99.90;;;;;;5122407;28;20522;-62
2023/06/23 09:18:33;;;;;;;9.43;6.00;;;22.70;99.90;;;;;;5114750;28;20496;-62
2023/06/23 09:21:02;;;;;;;6.83;5.80;;;22.80;99.90;;;;;;5107177;28;20478;-62
2023/06/23 09:23:31;;;;;;;6.97;5.20;;;22.90;99.90;;;;;;5114272;28;20765;-62
2023/06/23 09:26:00;;;;;;;6.20;5.60;;;23.40;99.90;;;;;;5102330;28;20491;-61
2023/06/23 09:28:29;;;;;;;5.60;5.10;;;23.60;99.90;;;;;;5120620;28;20980;-61
2023/06/23 09:30:58;;;;;;;6.23;5.63;;;24.10;99.90;;;;;;5121902;28;20502;-61
2023/06/23 09:33:28;;;;;;;5.30;4.80;;;25.00;99.90;;;;;;5122772;28;20459;-62
2023/06/23 09:35:57;;;;;;;5.97;5.37;;;24.40;99.90;;;;;;5122283;28;20550;-62
2023/06/23 09:38:28;;;;;;;5.17;4.67;;;24.00;99.90;;;;;;5105196;28;20472;-60
2023/06/23 09:41:09;;;;;;;5.53;5.00;;;23.20;99.90;;;;;;5106319;28;20816;-63
2023/06/23 09:43:41;;;;;;;5.43;4.80;;;23.10;99.90;;;;;;5102515;28;20460;-62
2023/06/23 09:46:10;;;;;;;5.60;5.00;;;22.80;99.90;;;;;;5100759;28;20770;-61
2023/06/23 09:48:38;;;;;;;6.10;5.50;;;22.50;99.90;;;;;;5100777;28;20522;-61
2023/06/23 09:51:07;;;;;;;5.27;4.77;;;23.10;99.90;;;;;;5105636;28;20461;-62
2023/06/23 09:53:37;;;;;;;5.50;5.00;;;23.70;99.90;;;;;;5100626;28;20707;-61
2023/06/23 09:56:07;;;;;;;5.13;4.73;;;24.10;99.90;;;;;;5104188;28;20560;-63
2023/06/23 09:58:39;;;;;;;5.40;4.90;;;23.80;99.90;;;;;;5118091;28;20519;-62
2023/06/23 10:01:08;;;;;;;6.03;5.43;;;23.90;99.90;;;;;;5122381;28;20881;-62
2023/06/23 10:03:43;;;;;;;6.87;6.23;;;23.60;99.90;;;;;;5103205;28;20957;-61
2023/06/23 10:06:22;;;;;;;8.00;5.63;;;23.70;99.90;;;;;;5102128;28;20509;-63
2023/06/23 10:08:54;;;;;;;6.40;5.80;;;23.20;99.90;;;;;;5103459;28;20487;-63
2023/06/23 10:11:29;;;;;;;6.40;5.80;;;23.40;99.90;;;;;;5103933;28;20527;-62
2023/06/23 10:13:58;;;;;;;7.70;6.10;;;24.20;99.90;;;;;;5102188;28;20490;-63
2023/06/23 10:16:26;;;;;;;6.50;5.87;;;24.20;99.90;;;;;;5105446;28;20456;-63
2023/06/23 10:18:54;;;;;;;8.27;5.80;;;24.30;99.90;;;;;;5105761;28;20467;-65
2023/06/23 10:21:24;;;;;;;6.30;5.33;;;24.20;99.90;;;;;;5106160;28;20488;-62
2023/06/23 10:23:59;;;;;;;6.60;6.00;;;24.80;99.90;;;;;;5103710;28;20461;-63
2023/06/23 10:26:29;;;;;;;6.57;6.07;;;24.40;99.90;;;;;;5103603;28;20451;-61
2023/06/23 10:28:59;;;;;;;6.90;6.40;;;25.10;99.90;;;;;;5123320;28;20466;-62
2023/06/23 10:31:31;;;;;;;7.57;6.87;;;25.30;99.90;;;;;;5121529;28;20512;-62
2023/06/23 10:34:00;;;;;;;7.73;7.03;;;25.50;99.90;;;;;;5119839;28;20952;-62
2023/06/23 10:36:31;;;;;;;7.90;7.20;;;25.20;99.90;;;;;;5119871;28;20459;-62
2023/06/23 10:39:04;;;;;;;10.80;7.73;;;24.40;99.90;;;;;;5117527;28;20434;-61
2023/06/23 10:41:34;;;;;;;7.83;6.63;;;24.40;99.90;;;;;;5118778;28;20888;-61
2023/06/23 10:44:04;;;;;;;7.70;7.10;;;25.20;99.90;;;;;;5118140;28;20548;-61
2023/06/23 10:46:32;;;;;;;10.77;7.97;;;25.30;99.90;;;;;;5118799;28;20506;-61
2023/06/23 10:49:03;;;;;;;7.97;7.17;;;25.50;99.90;;;;;;5122083;28;20497;-62
2023/06/23 10:51:31;;;;;;;7.97;7.27;;;25.10;99.90;;;;;;5122951;28;20459;-62
2023/06/23 10:54:01;;;;;;;10.33;9.30;;;25.10;99.90;;;;;;5121228;28;20502;-62
2023/06/23 10:56:33;;;;;;;11.10;10.17;;;25.50;99.90;;;;;;5121802;28;20541;-61
2023/06/23 10:59:01;;;;;;;9.60;8.70;;;25.80;99.90;;;;;;5119166;28;20892;-61
2023/06/23 11:01:28;;;;;;;9.50;8.80;;;26.00;99.90;;;;;;5120991;28;20546;-62
2023/06/23 11:04:03;;;;;;;11.23;10.37;;;25.10;99.90;;;;;;5122458;28;20573;-62
2023/06/23 11:06:36;;;;;;;10.77;9.87;;;24.10;99.90;;;;;;5115204;28;20550;-61
2023/06/23 11:09:26;;;;;;;8.40;7.60;;;23.70;99.90;;;;;;5117381;28;21008;-65
2023/06/23 11:11:53;;;;;;;9.50;7.97;;;24.40;99.90;;;;;;5120608;28;20542;-61
2023/06/23 11:14:21;;;;;;;8.77;7.93;;;25.00;99.90;;;;;;5122409;28;20459;-63
2023/06/23 11:16:51;;;;;;;8.43;7.73;;;25.40;99.90;;;;;;5111587;28;20468;-62
2023/06/23 11:19:28;;;;;;;9.30;8.40;;;25.00;99.90;;;;;;5103700;28;20453;-62
2023/06/23 11:22:09;;;;;;;11.77;10.57;;;24.50;99.90;;;;;;5100954;28;20463;-63
2023/06/23 11:24:53;;;;;;;10.03;8.97;;;25.30;99.90;;;;;;5100656;28;20460;-61
2023/06/23 11:27:21;;;;;;;8.83;7.93;;;26.20;99.90;;;;;;5116955;28;20463;-62
2023/06/23 11:30:16;;;;;;;10.63;9.00;;;26.60;99.90;;;;;;5121839;28;20459;-61
2023/06/23 11:32:44;;;;;;;7.07;6.47;;;26.00;99.90;;;;;;5119684;28;20458;-62
2023/06/23 11:35:12;;;;;;;9.57;8.87;;;25.80;99.90;;;;;;5119835;28;20452;-62
2023/06/23 11:37:39;;;;;;;8.83;8.03;;;25.20;99.90;;;;;;5118748;28;20785;-59
2023/06/23 11:40:11;;;;;;;10.00;8.97;;;25.10;99.90;;;;;;5118635;28;20462;-61
2023/06/23 11:42:44;;;;;;;14.97;7.77;;;25.20;99.90;;;;;;5120260;28;20456;-61
2023/06/23 11:45:12;;;;;;;7.53;6.90;;;25.50;99.90;;;;;;5120303;28;20546;-59
2023/06/23 11:47:39;;;;;;;6.60;5.90;;;26.60;99.90;;;;;;5120571;28;20494;-62
2023/06/23 11:50:10;;;;;;;11.43;7.20;;;27.30;99.90;;;;;;5119350;28;20550;-61
2023/06/23 11:52:38;;;;;;;7.90;5.90;;;26.80;99.90;;;;;;5119455;28;20887;-61
2023/06/23 11:55:06;;;;;;;6.70;6.20;;;27.30;99.90;;;;;;5121983;28;20463;-62
2023/06/23 11:57:35;;;;;;;7.60;7.00;;;27.90;99.90;;;;;;5119233;27;20915;-63
2023/06/23 12:00:05;;;;;;;6.63;6.13;;;27.30;99.90;;;;;;5114095;28;20467;-61
2023/06/23 12:02:32;;;;;;;7.87;7.17;;;27.70;99.90;;;;;;5108471;28;20495;-61
2023/06/23 12:05:00;;;;;;;6.47;5.97;;;28.40;99.90;;;;;;5118707;28;20460;-61
2023/06/23 12:07:31;;;;;;;7.47;6.73;;;28.30;99.90;;;;;;5120155;27;20455;-62
2023/06/23 12:09:58;;;;;;;6.30;5.83;;;28.60;99.90;;;;;;5118045;28;20771;-62
2023/06/23 12:12:26;;;;;;;6.10;5.60;;;28.30;99.90;;;;;;5113812;28;20822;-61
2023/06/23 12:15:00;;;;;;;6.87;6.27;;;28.70;99.90;;;;;;5116519;28;20498;-60
2023/06/23 12:17:27;;;;;;;5.60;5.20;;;28.00;99.90;;;;;;5115408;28;20478;-61
2023/06/23 12:19:55;;;;;;;5.33;4.83;;;27.20;99.90;;;;;;5114655;28;20499;-65
2023/06/23 12:22:22;;;;;;;5.93;5.53;;;28.00;99.90;;;;;;5116741;28;20455;-62
2023/06/23 12:24:50;;;;;;;6.07;5.50;;;27.60;99.90;;;;;;5116939;28;20542;-61
2023/06/23 12:27:18;;;;;;;6.50;5.90;;;27.20;99.90;;;;;;5115518;28;20498;-57
2023/06/23 12:29:45;;;;;;;6.37;5.87;;;26.70;99.90;;;;;;5099668;28;20781;-63
2023/06/23 12:32:14;;;;;;;5.30;4.90;;;26.90;99.90;;;;;;5109683;28;20507;-63
2023/06/23 12:34:45;;;;;;;7.20;4.60;;;27.00;99.90;;;;;;5108392;28;20467;-61
2023/06/23 12:37:14;;;;;;;5.77;5.30;;;27.60;99.90;;;;;;5114821;28;20472;-61
2023/06/23 12:39:41;;;;;;;5.50;5.10;;;27.60;99.90;;;;;;5112471;28;20474;-61
2023/06/23 12:42:09;;;;;;;6.53;5.50;;;28.20;99.90;;;;;;5115310;28;20503;-61
2023/06/23 12:44:39;;;;;;;5.27;4.87;;;28.80;99.90;;;;;;5111642;28;20897;-64
2023/06/23 12:47:07;;;;;;;5.53;4.80;;;28.40;99.90;;;;;;5097491;28;20498;-61
2023/06/23 12:49:39;;;;;;;4.93;4.57;;;28.10;99.90;;;;;;5095979;28;20488;-62